Time;durP1;ratioP1;P1;durP2;ratioP2;P2;SDS_P1;SDS_P2;PMS_P1;PMS_P2;Temp;Humidity;BMP_temperature;BMP_pressure;BME280_temperature;BME280_humidity;BME280_pressure;Samples;Min_cycle;Max_cycle;Signal;HPM_P1;HPM_P2
2022/10/01 00:01:46;;;;;;;27.83;17.33;;;;;;;15.26;73.56;100015.09;4889430;29;20092;-79
2022/10/01 00:04:12;;;;;;;30.23;17.25;;;;;;;15.18;73.66;99999.56;4891688;29;20048;-78
2022/10/01 00:06:38;;;;;;;28.95;18.60;;;;;;;15.18;72.91;100011.81;4877148;29;20092;-79
2022/10/01 00:09:04;;;;;;;29.35;18.60;;;;;;;14.99;73.35;100014.03;4895416;29;20044;-78
2022/10/01 00:11:32;;;;;;;30.50;18.92;;;;;;;14.84;73.53;100018.69;4893040;29;20098;-79
2022/10/01 00:13:58;;;;;;;30.67;18.27;;;;;;;14.83;73.77;100011.75;4899002;29;20040;-77
2022/10/01 00:16:26;;;;;;;30.00;18.75;;;;;;;14.71;74.01;100010.25;4900673;29;20054;-76
2022/10/01 00:18:53;;;;;;;33.72;18.60;;;;;;;14.66;73.98;100012.13;4913777;29;20043;-78
2022/10/01 00:21:28;;;;;;;29.75;17.33;;;;;;;14.76;74.59;100012.81;4933961;29;20076;-79
2022/10/01 00:23:55;;;;;;;24.58;15.50;;;;;;;14.91;74.92;100015.06;4894762;29;20386;-78
2022/10/01 00:26:26;;;;;;;25.20;16.75;;;;;;;14.98;74.91;100004.44;4894475;29;20476;-78
2022/10/01 00:28:55;;;;;;;26.80;15.65;;;;;;;15.07;74.63;100006.81;4878458;29;20048;-79
2022/10/01 00:31:22;;;;;;;30.92;17.08;;;;;;;15.05;74.40;100006.88;4874758;29;20194;-77
2022/10/01 00:33:50;;;;;;;36.60;17.65;;;;;;;14.86;74.53;99990.72;4892534;29;20041;-79
2022/10/01 00:36:19;;;;;;;30.00;18.35;;;;;;;14.93;74.70;100016.78;4893827;29;20036;-78
2022/10/01 00:38:46;;;;;;;33.83;18.48;;;;;;;14.93;74.72;100007.16;4891271;29;20052;-77
2022/10/01 00:41:14;;;;;;;35.85;18.83;;;;;;;14.94;74.95;100015.88;4893966;29;20139;-78
2022/10/01 00:43:45;;;;;;;34.33;17.20;;;;;;;14.91;75.12;100012.44;4892326;29;20132;-78
2022/10/01 00:46:48;;;;;;;33.97;16.52;;;;;;;14.82;75.22;100009.16;4890602;29;20086;-77
2022/10/01 00:49:19;;;;;;;31.05;16.60;;;;;;;14.81;75.01;100004.81;4873391;29;20192;-79
2022/10/01 00:51:51;;;;;;;33.42;16.20;;;;;;;14.80;75.03;100013.56;4873027;29;20440;-79
2022/10/01 00:54:36;;;;;;;31.42;16.02;;;;;;;14.80;75.80;100003.09;4894519;29;20123;-80
2022/10/01 00:57:04;;;;;;;28.00;15.63;;;;;;;14.86;75.86;100006.44;4892561;29;20095;-78
2022/10/01 00:59:30;;;;;;;27.15;15.68;;;;;;;14.90;75.67;100005.47;4888732;29;20048;-79
2022/10/01 01:01:56;;;;;;;27.83;15.75;;;;;;;14.91;76.07;99996.72;4893006;29;20523;-78
2022/10/01 01:04:23;;;;;;;26.73;16.13;;;;;;;14.90;75.35;99999.34;4888019;29;20055;-79
2022/10/01 01:06:58;;;;;;;30.38;17.50;;;;;;;14.82;75.40;99994.31;4892453;29;20044;-78
2022/10/01 01:09:34;;;;;;;28.50;17.20;;;;;;;14.80;75.79;99990.00;4894713;29;20066;-78
2022/10/01 01:12:18;;;;;;;29.60;16.55;;;;;;;14.82;76.18;99998.69;4899048;29;20582;-78
2022/10/01 01:14:49;;;;;;;31.60;16.50;;;;;;;14.88;76.26;100003.78;4892988;29;20429;-79
2022/10/01 01:17:28;;;;;;;30.13;17.13;;;;;;;14.91;76.34;99995.84;4889634;29;20052;-79
2022/10/01 01:20:31;;;;;;;29.05;17.15;;;;;;;14.88;76.44;100006.41;4890298;29;20510;-78
2022/10/01 01:23:09;;;;;;;34.00;17.48;;;;;;;14.81;76.39;99992.56;4888537;29;20095;-77
2022/10/01 01:26:02;;;;;;;36.22;18.33;;;;;;;14.90;76.36;100009.84;4857301;29;20397;-80
2022/10/01 01:28:36;;;;;;;30.52;16.92;;;;;;;14.96;76.29;100012.31;4894085;29;20399;-79
2022/10/01 01:31:09;;;;;;;33.72;18.90;;;;;;;14.90;75.79;100004.59;4891351;29;20055;-79
2022/10/01 01:33:39;;;;;;;35.50;18.88;;;;;;;14.83;76.40;100008.28;4911466;29;20412;-79
2022/10/01 01:36:12;;;;;;;35.58;18.85;;;;;;;14.75;76.33;99997.97;4898126;29;20552;-78
2022/10/01 01:38:44;;;;;;;36.88;20.00;;;;;;;14.69;76.41;99998.97;4888578;29;20048;-79
2022/10/01 01:41:11;;;;;;;39.72;20.05;;;;;;;14.65;76.16;99992.06;4893268;29;20044;-78
2022/10/01 01:43:41;;;;;;;41.75;20.00;;;;;;;14.45;76.27;99972.38;4888582;29;20493;-78
2022/10/01 01:46:11;;;;;;;40.30;19.85;;;;;;;14.45;76.05;99977.63;4872931;29;20056;-78
2022/10/01 01:48:40;;;;;;;38.13;20.08;;;;;;;14.39;76.41;99988.25;4856827;29;20041;-78
2022/10/01 01:51:13;;;;;;;35.75;19.10;;;;;;;14.48;77.23;99992.44;4869679;29;20072;-78
2022/10/01 01:53:40;;;;;;;40.35;20.23;;;;;;;14.51;76.91;99981.88;4857347;29;20068;-78
2022/10/01 01:56:07;;;;;;;38.55;19.73;;;;;;;14.64;77.08;99989.47;4889195;29;20469;-79
2022/10/01 01:58:35;;;;;;;42.08;22.90;;;;;;;14.72;77.23;99979.72;4891005;29;20040;-78
2022/10/01 02:01:02;;;;;;;37.53;19.10;;;;;;;14.73;76.67;99984.91;4892542;29;20552;-79
2022/10/01 02:03:29;;;;;;;36.80;19.48;;;;;;;14.63;76.80;99983.38;4893768;29;20088;-78
2022/10/01 02:06:23;;;;;;;41.72;20.13;;;;;;;14.61;76.68;99982.53;4892905;29;20045;-78
2022/10/01 02:09:34;;;;;;;36.17;19.02;;;;;;;14.53;77.23;99981.84;4891186;29;20055;-78
2022/10/01 02:12:18;;;;;;;33.08;18.20;;;;;;;14.66;77.23;99983.31;4883329;29;20381;-78
2022/10/01 02:14:59;;;;;;;36.08;19.25;;;;;;;14.72;77.52;99977.94;4870288;29;20072;-78
2022/10/01 02:17:51;;;;;;;36.78;18.75;;;;;;;14.66;76.74;99969.34;4887452;29;20044;-78
2022/10/01 02:20:32;;;;;;;40.85;18.73;;;;;;;14.62;77.11;99973.78;4892120;29;20040;-78
2022/10/01 02:23:04;;;;;;;42.35;19.00;;;;;;;14.52;76.86;99969.66;4891635;29;20416;-78
2022/10/01 02:25:34;;;;;;;36.47;18.95;;;;;;;14.51;77.36;99967.91;4893151;29;20536;-80
2022/10/01 02:28:06;;;;;;;36.95;19.35;;;;;;;14.54;76.75;99970.47;4891202;29;20182;-78
2022/10/01 02:30:36;;;;;;;;;;;;;;;14.51;77.23;99968.81;4890610;29;20048;-78
2022/10/01 02:33:06;;;;;;;35.67;18.08;;;;;;;14.57;77.79;99955.53;4887824;29;19974;-78
2022/10/01 02:35:34;;;;;;;36.28;18.98;;;;;;;14.66;77.64;99964.09;4890352;29;20052;-78
2022/10/01 02:38:04;;;;;;;36.60;18.13;;;;;;;14.69;77.54;99957.06;4894178;29;20047;-78
2022/10/01 02:40:34;;;;;;;40.42;18.40;;;;;;;14.82;77.63;99959.41;4900016;29;20072;-78
2022/10/01 02:43:06;;;;;;;34.25;18.35;;;;;;;14.85;77.22;99954.09;4891971;29;20135;-78
2022/10/01 02:45:36;;;;;;;39.47;18.58;;;;;;;14.75;76.69;99943.81;4892710;29;20041;-77
2022/10/01 02:48:05;;;;;;;34.60;17.75;;;;;;;14.75;77.32;99941.19;4891261;29;20059;-77
2022/10/01 02:50:41;;;;;;;36.17;17.80;;;;;;;14.72;77.23;99943.03;4891631;29;20041;-77
2022/10/01 02:53:14;;;;;;;38.47;19.17;;;;;;;14.59;76.97;99937.19;4891976;29;20441;-77
2022/10/01 02:55:42;;;;;;;43.03;19.50;;;;;;;14.66;77.29;99940.53;4907170;29;20047;-78
2022/10/01 02:58:08;;;;;;;38.13;18.05;;;;;;;14.64;77.57;99940.56;4869925;29;20494;-77
2022/10/01 03:00:34;;;;;;;40.47;18.98;;;;;;;14.73;77.51;99932.50;4894317;29;20092;-79
2022/10/01 03:03:01;;;;;;;41.35;19.10;;;;;;;14.71;77.24;99936.94;4893184;29;20053;-78
2022/10/01 03:05:27;;;;;;;65.45;22.17;;;;;;;14.54;76.26;99941.66;4892311;29;20044;-77
2022/10/01 03:07:53;;;;;;;54.00;19.52;;;;;;;14.50;76.86;99940.91;4890329;29;20060;-78
2022/10/01 03:10:19;;;;;;;49.22;20.50;;;;;;;14.46;77.23;99936.63;4890848;29;20044;-78
2022/10/01 03:12:45;;;;;;;45.50;21.35;;;;;;;14.50;77.90;99942.63;4890868;29;20437;-78
2022/10/01 03:15:13;;;;;;;77.45;21.65;;;;;;;14.44;77.08;99928.81;4886769;29;20048;-78
2022/10/01 03:17:39;;;;;;;90.20;21.40;;;;;;;14.43;76.83;99942.78;4891362;29;20044;-77
2022/10/01 03:20:05;;;;;;;69.38;22.20;;;;;;;14.37;77.29;99942.03;4890956;29;20055;-78
2022/10/01 03:22:32;;;;;;;46.75;19.33;;;;;;;14.39;77.85;99942.88;4880863;29;20048;-78
2022/10/01 03:24:58;;;;;;;45.65;20.13;;;;;;;14.44;77.50;99951.50;4888217;29;20051;-78
2022/10/01 03:27:24;;;;;;;56.90;19.85;;;;;;;14.44;77.61;99941.03;4890698;29;20053;-79
2022/10/01 03:29:50;;;;;;;61.08;19.10;;;;;;;14.42;77.64;99943.69;4891728;29;20071;-78
2022/10/01 03:32:17;;;;;;;62.45;19.80;;;;;;;14.45;77.44;99942.75;4871037;29;20176;-78
2022/10/01 03:34:43;;;;;;;40.28;19.02;;;;;;;14.40;77.71;99942.84;4876564;29;20385;-77
2022/10/01 03:37:09;;;;;;;98.07;19.48;;;;;;;14.38;77.77;99933.28;4893028;29;20108;-78
2022/10/01 03:39:35;;;;;;;50.22;19.33;;;;;;;14.42;77.74;99935.84;4890854;29;20173;-77
2022/10/01 03:42:04;;;;;;;54.20;19.90;;;;;;;14.46;77.94;99942.69;4871928;29;20044;-78
2022/10/01 03:44:31;;;;;;;92.07;19.88;;;;;;;14.44;77.73;99939.28;4891549;29;20044;-78
2022/10/01 03:46:57;;;;;;;41.42;18.88;;;;;;;14.51;77.85;99945.22;4886972;29;20041;-79
2022/10/01 03:49:23;;;;;;;46.47;18.00;;;;;;;14.50;77.83;99953.09;4894153;29;20067;-78
2022/10/01 03:51:49;;;;;;;58.38;18.02;;;;;;;14.35;77.51;99941.22;4893712;29;20073;-78
2022/10/01 03:54:16;;;;;;;38.00;17.27;;;;;;;14.39;77.98;99945.50;4898154;29;20055;-78
2022/10/01 03:56:42;;;;;;;115.65;19.00;;;;;;;14.28;77.52;99935.25;4919766;29;20051;-78
2022/10/01 03:59:09;;;;;;;67.72;19.75;;;;;;;14.30;77.74;99942.22;4920003;29;20081;-77
2022/10/01 04:01:36;;;;;;;40.83;18.00;;;;;;;14.35;78.06;99949.94;4892626;29;20048;-77
2022/10/01 04:04:02;;;;;;;65.80;17.90;;;;;;;14.30;77.58;99936.09;4879355;29;20407;-78
2022/10/01 04:06:29;;;;;;;43.42;17.73;;;;;;;14.30;78.66;99923.88;4892934;29;20051;-78
2022/10/01 04:08:56;;;;;;;37.95;17.25;;;;;;;14.44;78.05;99941.91;4882527;29;20173;-78
2022/10/01 04:11:22;;;;;;;62.53;17.52;;;;;;;14.58;78.19;99946.78;4903724;29;20493;-79
2022/10/01 04:13:48;;;;;;;95.53;19.20;;;;;;;14.53;77.14;99951.31;4894749;29;20047;-78
2022/10/01 04:16:14;;;;;;;103.45;19.17;;;;;;;14.36;77.24;99943.81;4893490;29;20053;-78
2022/10/01 04:18:41;;;;;;;108.78;20.10;;;;;;;14.32;77.70;99947.38;4877335;29;20068;-80
2022/10/01 04:21:07;;;;;;;57.40;17.88;;;;;;;14.40;78.28;99948.09;4886487;29;20052;-79
2022/10/01 04:23:33;;;;;;;41.22;16.30;;;;;;;14.45;78.54;99935.75;4897354;29;20036;-81
2022/10/01 04:26:02;;;;;;;43.20;16.95;;;;;;;14.60;78.32;99952.84;4895435;29;20052;-79
2022/10/01 04:28:30;;;;;;;52.17;16.88;;;;;;;14.56;77.19;99953.84;4877191;29;20048;-80
2022/10/01 04:33:41;;;;;;;51.75;17.40;;;;;;;14.60;77.76;99952.84;4908564;29;20139;-78
2022/10/01 04:36:07;;;;;;;50.92;17.50;;;;;;;14.54;77.83;99936.44;4896728;29;20048;-77
2022/10/01 04:38:34;;;;;;;42.03;16.83;;;;;;;14.59;77.82;99942.44;4889431;29;20036;-80
2022/10/01 04:41:00;;;;;;;49.55;17.20;;;;;;;14.50;77.48;99942.63;4890801;29;20057;-78
2022/10/01 04:43:26;;;;;;;44.85;17.17;;;;;;;14.49;77.59;99949.63;4898836;29;20037;-79
2022/10/01 04:45:52;;;;;;;48.05;17.55;;;;;;;14.46;77.25;99950.56;4898951;29;20397;-79
2022/10/01 04:48:18;;;;;;;46.00;17.73;;;;;;;14.42;77.77;99954.16;4879810;29;20041;-80
2022/10/01 04:50:44;;;;;;;37.83;17.27;;;;;;;14.48;77.93;99957.50;4870720;29;20048;-78
2022/10/01 04:53:10;;;;;;;40.70;17.60;;;;;;;14.50;77.86;99947.88;4894894;29;20048;-78
2022/10/01 04:55:36;;;;;;;46.90;17.88;;;;;;;14.39;77.82;99941.13;4894178;29;20144;-78
2022/10/01 04:58:02;;;;;;;46.20;17.80;;;;;;;14.49;77.77;99954.00;4893507;29;20134;-78
2022/10/01 05:00:29;;;;;;;43.22;18.38;;;;;;;14.48;77.79;99962.75;4892599;29;20076;-79
2022/10/01 05:02:55;;;;;;;39.85;17.75;;;;;;;14.46;77.58;99957.56;4891067;29;20044;-80
2022/10/01 05:05:23;;;;;;;34.33;16.80;;;;;;;14.51;78.03;99950.47;4892319;29;20055;-78
2022/10/01 05:07:49;;;;;;;31.75;16.17;;;;;;;14.50;78.14;99932.16;4887707;29;20060;-79
2022/10/01 05:10:19;;;;;;;35.65;17.48;;;;;;;14.70;77.62;99956.16;4907988;29;20222;-79
2022/10/01 05:12:46;;;;;;;38.47;17.60;;;;;;;14.67;77.58;99960.59;4886709;29;20045;-80
2022/10/01 05:15:15;;;;;;;40.00;18.75;;;;;;;14.66;77.39;99949.25;4888289;29;20140;-78
2022/10/01 05:17:40;;;;;;;36.75;17.92;;;;;;;14.68;77.72;99955.31;4891407;29;20127;-80
2022/10/01 05:20:10;;;;;;;45.38;18.50;;;;;;;14.62;77.51;99958.06;4889752;29;20144;-78
2022/10/01 05:22:36;;;;;;;36.58;19.00;;;;;;;14.59;77.84;99942.44;4893384;29;20132;-78
2022/10/01 05:25:03;;;;;;;46.38;18.77;;;;;;;14.60;77.71;99933.69;4892923;29;20308;-79
2022/10/01 05:27:36;;;;;;;54.70;19.67;;;;;;;14.64;77.46;99951.06;4892919;29;20059;-77
2022/10/01 05:30:10;;;;;;;62.95;19.98;;;;;;;14.55;77.21;99938.16;4893888;29;20406;-78
2022/10/01 05:32:37;;;;;;;64.82;19.38;;;;;;;14.51;77.50;99939.13;4897705;29;20032;-78
2022/10/01 05:35:05;;;;;;;46.17;19.52;;;;;;;14.52;78.23;99936.50;4907478;29;20056;-79
2022/10/01 05:37:31;;;;;;;34.72;19.45;;;;;;;14.60;78.05;99938.91;4905053;29;20041;-77
2022/10/01 05:39:57;;;;;;;37.88;19.27;;;;;;;14.69;78.22;99932.63;4890688;29;20156;-80
2022/10/01 05:42:23;;;;;;;57.85;18.60;;;;;;;14.73;77.78;99929.91;4893584;29;20064;-81
2022/10/01 05:44:50;;;;;;;33.95;18.50;;;;;;;14.78;77.66;99932.44;4890599;29;20083;-83
2022/10/01 05:47:16;;;;;;;44.40;18.98;;;;;;;14.72;77.79;99915.06;4908306;29;20044;-80
2022/10/01 05:49:43;;;;;;;38.30;18.33;;;;;;;14.78;77.99;99926.31;4884009;29;21613;-83
2022/10/01 05:52:10;;;;;;;29.65;18.13;;;;;;;14.80;78.41;99909.66;4885774;29;20059;-79
2022/10/01 05:54:40;;;;;;;35.38;18.95;;;;;;;14.82;77.92;99918.34;4892342;29;20052;-78
2022/10/01 05:57:07;;;;;;;31.77;18.42;;;;;;;14.85;78.14;99906.94;4888712;29;20040;-78
2022/10/01 08:20:20;;;;;;;20.15;13.20;;;;;;;16.45;76.08;99776.47;4936415;29;20527;-80
2022/10/01 08:22:46;;;;;;;21.83;13.70;;;;;;;16.58;75.82;99775.13;4906419;29;20138;-82
2022/10/01 08:25:12;;;;;;;21.88;13.93;;;;;;;16.69;75.17;99788.75;4936538;29;20035;-77
2022/10/01 08:27:38;;;;;;;20.55;13.38;;;;;;;16.77;75.37;99775.34;4940330;29;20095;-78
2022/10/01 08:30:05;;;;;;;22.60;14.07;;;;;;;16.74;75.05;99769.34;4932840;29;20107;-77
2022/10/01 08:32:31;;;;;;;22.27;14.23;;;;;;;16.79;74.44;99768.28;4937645;29;20044;-78
2022/10/01 08:34:58;;;;;;;22.17;13.95;;;;;;;16.71;73.78;99768.56;4925934;29;20066;-78
2022/10/01 08:37:26;;;;;;;24.33;15.05;;;;;;;16.67;74.60;99764.31;4918456;29;20044;-77
2022/10/01 08:39:53;;;;;;;26.17;14.82;;;;;;;16.67;74.17;99768.69;4905581;29;20043;-77
2022/10/01 08:42:59;;;;;;;25.00;15.15;;;;;;;16.64;74.07;99760.94;4939136;29;20047;-78
2022/10/01 08:45:35;;;;;;;23.27;15.20;;;;;;;16.71;74.57;99759.78;4905174;29;20134;-79
2022/10/01 08:48:14;;;;;;;23.42;15.35;;;;;;;16.83;74.32;99756.75;4918860;29;20079;-78
2022/10/01 08:50:58;;;;;;;24.23;15.52;;;;;;;16.70;73.76;99742.31;4937593;29;20047;-76
2022/10/01 08:53:37;;;;;;;21.60;14.48;;;;;;;16.81;74.16;99748.06;4919618;29;20040;-80
2022/10/01 08:56:05;;;;;;;24.67;16.17;;;;;;;16.71;73.83;99734.41;4919200;29;20130;-79
2022/10/01 08:58:42;;;;;;;24.25;15.68;;;;;;;16.76;74.20;99734.22;4934298;29;20047;-78
2022/10/01 09:01:11;;;;;;;24.48;15.35;;;;;;;16.88;73.79;99746.06;4910743;29;20353;-81
2022/10/01 09:03:38;;;;;;;27.58;16.88;;;;;;;17.01;73.97;99747.34;4929771;29;20414;-78
2022/10/01 09:06:18;;;;;;;22.88;15.88;;;;;;;17.03;73.99;99742.06;4931016;29;20384;-79
2022/10/01 09:09:10;;;;;;;24.33;15.40;;;;;;;16.95;73.31;99741.44;4910564;29;20078;-79
2022/10/01 09:12:02;;;;;;;25.95;16.60;;;;;;;16.95;73.71;99736.19;4933312;29;20460;-79
2022/10/01 09:14:36;;;;;;;26.67;15.75;;;;;;;16.93;73.28;99735.38;4916309;29;20134;-76
2022/10/01 09:17:11;;;;;;;25.38;16.38;;;;;;;16.79;73.50;99707.84;4932268;29;20581;-77
2022/10/01 09:19:53;;;;;;;26.55;15.95;;;;;;;16.98;73.48;99731.72;4913480;29;20066;-79
2022/10/01 09:22:40;;;;;;;26.20;16.40;;;;;;;16.99;73.56;99735.19;4930404;29;20044;-78
2022/10/01 09:25:24;;;;;;;24.20;16.25;;;;;;;17.01;73.38;99730.75;4937845;29;20055;-80
2022/10/01 09:28:10;;;;;;;27.70;17.30;;;;;;;17.01;73.56;99722.88;4902723;29;20040;-77
2022/10/01 09:30:45;;;;;;;24.23;16.00;;;;;;;17.06;73.21;99718.31;4919364;29;20074;-81
2022/10/01 09:33:15;;;;;;;25.35;16.02;;;;;;;17.02;73.08;99707.03;4919038;29;20048;-77
2022/10/01 09:35:55;;;;;;;23.77;15.68;;;;;;;16.99;72.79;99708.91;4919298;29;20439;-79
2022/10/01 09:38:39;;;;;;;26.38;15.55;;;;;;;16.86;72.93;99717.22;4928365;29;20043;-78
2022/10/01 09:41:19;;;;;;;25.00;15.77;;;;;;;16.79;72.92;99718.34;4935661;29;20043;-80
2022/10/01 09:43:46;;;;;;;25.15;16.10;;;;;;;16.75;72.97;99714.13;4936879;29;20488;-81
2022/10/01 09:46:16;;;;;;;25.50;14.98;;;;;;;16.47;73.40;99654.69;4904892;29;20040;-81
2022/10/01 09:49:07;;;;;;;26.55;16.40;;;;;;;16.71;73.06;99683.59;4934981;29;20044;-78
2022/10/01 09:51:45;;;;;;;24.83;15.57;;;;;;;16.91;73.01;99706.53;4907128;29;20043;-81
2022/10/01 09:54:30;;;;;;;23.88;15.00;;;;;;;16.97;73.42;99692.34;4920772;29;20046;-81
2022/10/01 09:57:12;;;;;;;26.92;14.95;;;;;;;17.03;73.21;99692.13;4892093;29;20039;-80
2022/10/01 10:00:02;;;;;;;22.50;14.77;;;;;;;16.96;73.12;99669.59;4916061;29;20040;-78
2022/10/01 10:02:36;;;;;;;20.35;13.57;;;;;;;17.13;73.31;99682.97;4926969;29;20142;-76
2022/10/01 10:05:03;;;;;;;;;;;;;;;17.19;73.11;99681.03;4905801;29;20096;-77
2022/10/01 10:07:33;;;;;;;20.80;12.98;;;;;;;17.16;73.02;99663.59;4915196;29;19926;-77
2022/10/01 10:10:34;;;;;;;22.45;13.77;;;;;;;17.11;72.53;99669.00;4900156;29;20535;-78
2022/10/01 10:13:04;;;;;;;23.92;15.07;;;;;;;17.01;72.60;99658.00;4901125;29;20039;-79
2022/10/01 10:15:31;;;;;;;23.88;14.63;;;;;;;16.99;72.91;99656.34;4902510;29;20131;-78
2022/10/01 10:18:09;;;;;;;20.80;13.95;;;;;;;16.93;72.75;99646.91;4902561;29;20035;-79
2022/10/01 10:20:42;;;;;;;18.45;13.68;;;;;;;16.94;73.03;99655.63;4922346;29;20091;-79
2022/10/01 10:23:21;;;;;;;23.50;13.60;;;;;;;16.90;73.37;99638.25;4900927;29;20139;-81
2022/10/01 10:26:19;;;;;;;19.77;14.70;;;;;;;16.94;73.07;99645.13;4922897;29;20067;-78
2022/10/01 10:28:45;;;;;;;20.40;14.50;;;;;;;16.88;72.96;99635.69;4894828;29;20516;-78
2022/10/01 10:31:23;;;;;;;24.65;14.80;;;;;;;16.86;72.95;99648.91;4915914;29;20508;-79
2022/10/01 10:34:01;;;;;;;21.30;14.68;;;;;;;16.90;73.35;99648.78;4916507;29;20075;-79
2022/10/01 10:36:35;;;;;;;22.23;15.18;;;;;;;16.94;73.04;99634.59;4913981;29;20500;-79
2022/10/01 10:39:22;;;;;;;20.80;13.77;;;;;;;17.09;73.58;99635.81;4898618;29;20036;-78
2022/10/01 10:41:50;;;;;;;20.27;13.80;;;;;;;17.25;73.44;99633.47;4915116;29;20099;-78
2022/10/01 10:44:20;;;;;;;23.20;15.00;;;;;;;17.31;73.00;99639.34;4913852;29;20044;-79
2022/10/01 10:46:48;;;;;;;21.52;14.65;;;;;;;17.24;72.85;99634.38;4915340;29;20051;-79
2022/10/01 10:49:28;;;;;;;21.20;14.00;;;;;;;17.11;72.63;99631.38;4929263;29;20424;-78
2022/10/01 10:51:57;;;;;;;21.42;14.00;;;;;;;17.06;72.82;99625.44;4915193;29;20576;-80
2022/10/01 10:54:36;;;;;;;22.30;14.15;;;;;;;17.07;72.95;99622.75;4899253;29;20350;-79
2022/10/01 10:57:28;;;;;;;21.02;13.88;;;;;;;17.10;72.67;99633.13;4896503;29;20060;-81
2022/10/01 11:00:16;;;;;;;20.95;14.15;;;;;;;17.01;72.57;99629.09;4915021;29;20071;-80
2022/10/01 11:03:12;;;;;;;25.38;15.13;;;;;;;17.06;72.96;99614.91;4916846;29;20040;-78
2022/10/01 11:05:40;;;;;;;18.58;13.93;;;;;;;17.17;73.16;99624.09;4896662;29;20090;-80
2022/10/01 11:08:19;;;;;;;23.13;15.10;;;;;;;17.30;73.11;99615.75;4915467;29;20086;-79
2022/10/01 11:10:52;;;;;;;22.63;15.27;;;;;;;17.38;72.51;99615.44;4900611;29;20048;-78
2022/10/01 11:13:27;;;;;;;20.80;15.27;;;;;;;17.57;72.90;99613.78;4931898;29;20047;-79
2022/10/01 11:16:03;;;;;;;20.75;14.02;;;;;;;17.73;73.05;99608.75;4913291;29;20042;-80
2022/10/01 11:18:35;;;;;;;20.65;14.60;;;;;;;17.86;72.67;99614.34;4899304;29;20040;-80
2022/10/01 11:21:27;;;;;;;21.25;14.35;;;;;;;17.96;72.90;99599.03;4943634;29;20165;-79
2022/10/01 11:24:15;;;;;;;20.55;13.80;;;;;;;18.16;72.61;99592.06;4922594;29;20036;-80
2022/10/01 11:27:09;;;;;;;19.38;13.05;;;;;;;18.45;72.51;99580.22;4905894;29;20148;-81
2022/10/01 11:29:54;;;;;;;18.67;13.27;;;;;;;18.79;71.89;99591.00;4870154;29;20050;-80
2022/10/01 11:32:44;;;;;;;18.15;13.05;;;;;;;19.03;71.27;99575.84;4917496;29;20131;-81
2022/10/01 11:35:22;;;;;;;17.70;13.93;;;;;;;19.13;70.52;99570.97;4921248;29;20467;-80
2022/10/01 11:38:06;;;;;;;17.20;12.77;;;;;;;19.13;70.48;99568.34;4933277;29;20831;-79
2022/10/01 11:40:42;;;;;;;17.90;12.55;;;;;;;19.03;69.34;99557.38;4877945;29;20039;-78
2022/10/01 11:43:16;;;;;;;23.33;13.88;;;;;;;18.98;69.92;99571.72;4932141;29;20047;-79
2022/10/01 11:45:51;;;;;;;17.30;12.90;;;;;;;18.80;68.98;99538.22;4933277;29;20040;-80
2022/10/01 11:48:56;;;;;;;22.05;13.82;;;;;;;18.67;68.54;99548.47;4913796;29;20512;-77
2022/10/01 11:51:30;;;;;;;23.33;13.95;;;;;;;18.55;69.21;99548.19;4936972;29;20086;-80
2022/10/01 11:54:06;;;;;;;20.40;13.55;;;;;;;18.37;69.09;99558.63;4936189;29;20042;-78
2022/10/01 11:59:35;;;;;;;21.08;14.90;;;;;;;18.20;69.42;99548.88;4933330;29;20056;-77
2022/10/01 12:02:28;;;;;;;21.88;14.32;;;;;;;18.12;69.48;99551.00;4919680;29;20104;-79
2022/10/01 12:05:00;;;;;;;23.08;15.88;;;;;;;17.90;69.30;99551.91;4933696;29;20044;-77
2022/10/01 12:08:02;;;;;;;;;;;;;;;17.60;69.54;99552.28;4940805;29;20090;-79
2022/10/01 12:10:49;;;;;;;25.98;15.98;;;;;;;17.24;70.10;99545.84;4863075;29;19967;-78
2022/10/01 12:13:32;;;;;;;36.22;19.08;;;;;;;16.82;70.27;99538.72;4887139;29;20059;-79
2022/10/01 12:16:19;;;;;;;32.97;19.77;;;;;;;16.68;71.60;99539.25;4931157;29;20581;-79
2022/10/01 12:19:11;;;;;;;48.85;23.35;;;;;;;16.62;72.75;99539.50;4940925;29;20043;-80
2022/10/01 12:21:44;;;;;;;41.08;22.25;;;;;;;16.67;73.40;99529.63;4921424;29;20459;-79
2022/10/01 12:24:14;;;;;;;50.45;23.05;;;;;;;16.68;73.96;99515.59;4939634;29;20115;-80
2022/10/01 12:26:57;;;;;;;41.90;21.25;;;;;;;16.74;74.37;99525.88;4906552;29;20407;-80
2022/10/01 12:29:44;;;;;;;48.08;21.52;;;;;;;16.69;74.21;99519.94;4903757;29;20504;-79
2022/10/01 12:32:13;;;;;;;69.03;24.67;;;;;;;16.66;75.75;99512.19;4937303;29;20068;-81
2022/10/01 12:35:10;;;;;;;49.88;25.38;;;;;;;16.85;75.95;99518.44;4903461;29;20082;-80
2022/10/01 12:37:48;;;;;;;38.45;21.65;;;;;;;17.01;76.32;99516.06;4930858;29;20039;-80
2022/10/01 12:40:22;;;;;;;31.85;19.55;;;;;;;17.10;76.27;99520.09;4906218;29;20039;-80
2022/10/01 12:43:14;;;;;;;29.88;18.88;;;;;;;17.06;76.20;99504.53;4938690;29;20052;-81
2022/10/01 12:46:09;;;;;;;28.90;18.67;;;;;;;17.07;76.68;99498.34;4937068;29;20511;-79
2022/10/01 12:48:40;;;;;;;26.92;17.33;;;;;;;17.31;76.65;99517.53;4921650;29;20046;-79
2022/10/01 12:51:37;;;;;;;30.02;18.40;;;;;;;17.46;77.07;99501.13;4906356;29;20111;-80
2022/10/01 12:54:44;;;;;;;25.08;16.55;;;;;;;17.61;76.68;99494.34;4920989;29;20058;-81
2022/10/01 12:57:33;;;;;;;21.98;14.98;;;;;;;17.62;76.18;99489.94;4904435;29;20074;-79
2022/10/01 13:00:12;;;;;;;23.33;16.40;;;;;;;17.64;76.68;99497.78;4922218;29;20075;-81
2022/10/01 13:02:55;;;;;;;25.20;17.10;;;;;;;17.79;76.71;99496.22;4912084;29;20048;-80
2022/10/01 13:05:25;;;;;;;25.33;16.02;;;;;;;17.94;76.50;99485.03;4924537;29;20507;-78
2022/10/01 13:08:08;;;;;;;21.67;14.68;;;;;;;17.91;75.82;99486.03;4913400;29;20107;-80
2022/10/01 13:11:02;;;;;;;23.60;14.38;;;;;;;17.91;76.16;99478.13;4902095;29;20099;-79
2022/10/01 13:13:31;;;;;;;20.27;14.73;;;;;;;17.87;75.73;99468.69;4887265;29;20051;-78
2022/10/01 13:16:09;;;;;;;21.30;15.00;;;;;;;17.88;75.77;99469.53;4894023;29;20058;-79
2022/10/01 13:19:00;;;;;;;20.70;14.73;;;;;;;17.86;75.36;99472.22;4937901;29;20039;-81
2022/10/01 13:22:07;;;;;;;20.45;14.30;;;;;;;17.98;75.33;99464.69;4919895;29;20431;-79
2022/10/01 13:24:59;;;;;;;20.85;14.38;;;;;;;18.04;74.90;99462.66;4901105;29;20071;-79
2022/10/01 13:27:48;;;;;;;19.20;13.60;;;;;;;18.01;74.73;99454.91;4917505;29;20045;-78
2022/10/01 13:30:22;;;;;;;18.63;14.07;;;;;;;17.91;74.25;99446.53;4919336;29;20050;-77
2022/10/01 13:32:59;;;;;;;22.05;15.73;;;;;;;17.82;74.53;99444.34;4919815;29;20040;-77
2022/10/01 13:35:32;;;;;;;22.92;15.68;;;;;;;17.78;74.43;99448.03;4903455;29;20138;-77
2022/10/01 13:37:58;;;;;;;22.73;15.70;;;;;;;17.64;74.17;99442.53;4899180;29;20044;-79
2022/10/01 13:40:31;;;;;;;27.30;16.40;;;;;;;17.54;74.17;99437.66;4916841;29;20043;-78
2022/10/01 13:43:23;;;;;;;23.73;15.88;;;;;;;17.38;73.96;99442.72;4906133;29;20043;-79
2022/10/01 13:46:05;;;;;;;21.92;15.20;;;;;;;17.39;74.37;99460.19;4923590;29;20098;-82
2022/10/01 13:48:34;;;;;;;23.20;16.83;;;;;;;17.25;74.21;99446.78;4932617;29;20040;-80
2022/10/01 13:51:15;;;;;;;23.48;15.80;;;;;;;17.06;74.04;99420.41;4922339;29;20051;-80
2022/10/01 13:53:55;;;;;;;22.65;16.45;;;;;;;17.21;74.74;99445.22;4920689;29;20551;-82
2022/10/01 13:56:35;;;;;;;25.60;18.05;;;;;;;17.20;74.36;99448.75;4924312;29;20047;-80
2022/10/01 13:59:33;;;;;;;25.35;17.73;;;;;;;17.22;74.70;99449.56;4919145;29;20059;-78
2022/10/01 14:01:59;;;;;;;28.48;18.33;;;;;;;17.12;74.68;99438.56;4946682;29;20115;-78
2022/10/01 14:04:41;;;;;;;25.70;17.33;;;;;;;17.03;74.96;99434.56;4943126;29;20078;-77
2022/10/01 14:07:16;;;;;;;28.95;17.38;;;;;;;17.11;75.28;99442.94;4927354;29;20043;-80
2022/10/01 14:09:47;;;;;;;26.17;18.00;;;;;;;17.14;75.15;99450.72;4910021;29;20039;-77
2022/10/01 14:18:31;;;;;;;31.35;20.80;;;;;;;16.93;75.20;99409.53;4945105;29;20044;-79
2022/10/01 14:21:17;;;;;;;28.45;17.63;;;;;;;17.00;75.18;99425.00;4882377;29;1337933;-79
2022/10/01 14:24:01;;;;;;;27.00;19.15;;;;;;;17.01;75.57;99410.09;4947978;29;20091;-78